Time;durP1;ratioP1;P1;durP2;ratioP2;P2;SDS_P1;SDS_P2;PMS_P1;PMS_P2;Temp;Humidity;BMP_temperature;BMP_pressure;BME280_temperature;BME280_humidity;BME280_pressure;Samples;Min_cycle;Max_cycle;Signal;HPM_P1;HPM_P2
2023/03/24 00:01:10;;;;;;;2.50;1.40;;;12.70;99.90;;;;;;5051395;28;20082;-40
2023/03/24 00:03:37;;;;;;;2.00;1.45;;;12.70;99.90;;;;;;5051311;28;20025;-40
2023/03/24 00:06:04;;;;;;;2.03;1.48;;;12.70;99.90;;;;;;5050055;28;20029;-36
2023/03/24 00:08:34;;;;;;;1.83;1.27;;;12.70;99.90;;;;;;5052784;28;20397;-36
2023/03/24 00:11:10;;;;;;;2.47;1.33;;;12.70;99.90;;;;;;5051546;28;20028;-39
2023/03/24 00:13:37;;;;;;;2.10;1.35;;;12.70;99.90;;;;;;5051188;28;20070;-36
2023/03/24 00:16:14;;;;;;;2.30;1.50;;;12.70;99.90;;;;;;5051129;28;20028;-38
2023/03/24 00:18:41;;;;;;;1.92;1.38;;;12.70;99.90;;;;;;5051245;28;20021;-36
2023/03/24 00:21:10;;;;;;;2.20;1.40;;;12.70;99.90;;;;;;5051590;28;20083;-35
2023/03/24 00:23:36;;;;;;;1.92;1.30;;;12.70;99.90;;;;;;5051145;28;20147;-36
2023/03/24 00:26:08;;;;;;;3.38;1.55;;;12.70;99.90;;;;;;5050936;28;20063;-39
2023/03/24 00:28:36;;;;;;;2.53;1.67;;;12.70;99.90;;;;;;5051851;28;20041;-37
2023/03/24 00:31:03;;;;;;;2.03;1.30;;;12.70;99.90;;;;;;5051190;28;20029;-35
2023/03/24 00:33:31;;;;;;;2.35;1.52;;;12.70;99.90;;;;;;5051099;28;20498;-36
2023/03/24 00:35:58;;;;;;;2.08;1.50;;;12.70;99.90;;;;;;5050541;28;20033;-36
2023/03/24 00:38:25;;;;;;;1.70;1.30;;;12.70;99.90;;;;;;5051148;28;20021;-38
2023/03/24 00:40:51;;;;;;;1.73;1.40;;;12.70;99.90;;;;;;5051266;28;20051;-38
2023/03/24 00:43:17;;;;;;;2.42;1.40;;;12.70;99.90;;;;;;5052358;28;20379;-36
2023/03/24 00:45:46;;;;;;;2.13;1.33;;;12.70;99.90;;;;;;5051206;28;20040;-40
2023/03/24 00:48:17;;;;;;;1.65;1.30;;;12.70;99.90;;;;;;5051452;28;20029;-36
2023/03/24 00:50:47;;;;;;;2.55;1.70;;;12.70;99.90;;;;;;5051799;28;20421;-36
2023/03/24 00:53:17;;;;;;;1.77;1.40;;;12.70;99.90;;;;;;5051221;28;20036;-38
2023/03/24 00:55:44;;;;;;;2.55;1.60;;;12.70;99.90;;;;;;5050709;28;20029;-37
2023/03/24 00:58:16;;;;;;;2.47;1.50;;;12.70;99.90;;;;;;5050661;28;20017;-35
2023/03/24 01:00:44;;;;;;;2.60;1.60;;;12.70;99.90;;;;;;5050649;28;20051;-38
2023/03/24 01:03:10;;;;;;;1.98;1.35;;;12.60;99.90;;;;;;5051505;28;20139;-36
2023/03/24 01:05:36;;;;;;;1.60;1.30;;;12.70;99.90;;;;;;5055751;28;20506;-40
2023/03/24 01:08:03;;;;;;;2.50;1.55;;;12.60;99.90;;;;;;5054914;28;20079;-36
2023/03/24 01:10:31;;;;;;;2.15;1.35;;;12.60;99.90;;;;;;5055108;28;20047;-36
2023/03/24 01:12:58;;;;;;;2.03;1.42;;;12.60;99.90;;;;;;5055472;28;20055;-38
2023/03/24 01:15:28;;;;;;;2.33;1.25;;;12.60;99.90;;;;;;5054648;28;20056;-39
2023/03/24 01:17:54;;;;;;;2.13;1.40;;;12.60;99.90;;;;;;5054398;28;20467;-38
2023/03/24 01:20:22;;;;;;;2.40;1.48;;;12.60;99.90;;;;;;5054647;28;20025;-36
2023/03/24 01:22:48;;;;;;;1.90;1.30;;;12.60;99.90;;;;;;5054543;28;20020;-36
2023/03/24 01:25:18;;;;;;;1.77;1.40;;;12.60;99.90;;;;;;5054445;28;20081;-36
2023/03/24 01:27:45;;;;;;;2.03;1.13;;;12.60;99.90;;;;;;5053937;28;20119;-39
2023/03/24 01:30:13;;;;;;;2.25;1.20;;;12.60;99.90;;;;;;5054628;28;20063;-39
2023/03/24 01:32:39;;;;;;;2.50;1.52;;;12.60;99.90;;;;;;5055441;28;20033;-38
2023/03/24 01:35:06;;;;;;;2.33;1.30;;;12.60;99.90;;;;;;5054201;28;20028;-35
2023/03/24 01:37:31;;;;;;;2.03;1.40;;;12.60;99.90;;;;;;5053674;28;20057;-39
2023/03/24 01:39:57;;;;;;;1.88;1.20;;;12.60;99.90;;;;;;5055972;28;20060;-36
2023/03/24 01:42:25;;;;;;;2.13;1.55;;;12.50;99.90;;;;;;5054398;28;20028;-40
2023/03/24 01:44:56;;;;;;;2.53;1.27;;;12.50;99.90;;;;;;5054236;28;20482;-36
2023/03/24 01:47:22;;;;;;;2.45;1.38;;;12.50;99.90;;;;;;5053599;28;20017;-35
2023/03/24 01:49:58;;;;;;;1.63;1.30;;;12.50;99.90;;;;;;5054121;28;20048;-36
2023/03/24 01:52:31;;;;;;;1.75;1.35;;;12.50;99.90;;;;;;5054314;28;20541;-37
2023/03/24 01:55:01;;;;;;;1.73;1.20;;;12.50;99.90;;;;;;5053885;28;20116;-36
2023/03/24 01:57:39;;;;;;;1.60;1.25;;;12.50;99.90;;;;;;5054005;28;20048;-36
2023/03/24 02:00:13;;;;;;;1.90;1.30;;;12.50;99.90;;;;;;5054041;28;20028;-36
2023/03/24 02:02:43;;;;;;;1.20;1.05;;;12.50;99.90;;;;;;5054112;28;20067;-39
2023/03/24 02:05:11;;;;;;;1.85;1.40;;;12.50;99.90;;;;;;5053105;28;20032;-39
2023/03/24 02:07:40;;;;;;;1.85;1.33;;;12.50;99.90;;;;;;5053231;28;20502;-38
2023/03/24 02:10:11;;;;;;;2.70;1.08;;;12.50;99.90;;;;;;5053582;28;20108;-38
2023/03/24 02:12:37;;;;;;;2.08;1.52;;;12.50;99.90;;;;;;5053851;28;20474;-38
2023/03/24 02:15:05;;;;;;;2.42;1.60;;;12.50;99.90;;;;;;5053710;28;20033;-39
2023/03/24 02:17:58;;;;;;;3.03;1.50;;;12.50;99.90;;;;;;5053250;28;20033;-38
2023/03/24 02:20:38;;;;;;;2.50;1.48;;;12.50;99.90;;;;;;5053407;28;20021;-38
2023/03/24 02:23:28;;;;;;;2.90;1.63;;;12.50;99.90;;;;;;5053318;28;20021;-38
2023/03/24 02:26:09;;;;;;;1.30;1.10;;;12.50;99.90;;;;;;5052925;28;20036;-38
2023/03/24 02:29:02;;;;;;;1.92;1.60;;;12.50;99.90;;;;;;5053303;28;20051;-38
2023/03/24 02:31:50;;;;;;;3.05;1.58;;;12.50;99.90;;;;;;5053201;28;20017;-36
2023/03/24 02:34:35;;;;;;;2.00;1.50;;;12.50;99.90;;;;;;5053151;28;20025;-39
2023/03/24 02:37:27;;;;;;;1.60;1.10;;;12.50;99.90;;;;;;5053204;28;20036;-36
2023/03/24 02:40:10;;;;;;;1.67;1.30;;;12.50;99.90;;;;;;5051958;28;20044;-37
2023/03/24 02:42:44;;;;;;;1.73;1.33;;;12.50;99.90;;;;;;5053692;28;20469;-36
2023/03/24 02:45:35;;;;;;;1.35;1.13;;;12.50;99.90;;;;;;5053153;28;20025;-36
2023/03/24 02:48:24;;;;;;;1.90;1.45;;;12.50;99.90;;;;;;5052586;28;20100;-36
2023/03/24 02:50:54;;;;;;;2.08;1.25;;;12.40;99.90;;;;;;5053036;28;20079;-36
2023/03/24 02:53:31;;;;;;;2.00;1.52;;;12.50;99.90;;;;;;5052775;28;20045;-36
2023/03/24 02:56:12;;;;;;;1.88;1.48;;;12.40;99.90;;;;;;5052563;28;20588;-36
2023/03/24 02:58:56;;;;;;;2.60;1.35;;;12.40;99.90;;;;;;5053555;28;20175;-36
2023/03/24 03:01:42;;;;;;;2.07;1.30;;;12.40;99.90;;;;;;5052809;28;20494;-36
2023/03/24 03:04:13;;;;;;;2.80;1.23;;;12.40;99.90;;;;;;5052841;28;20256;-37
2023/03/24 03:06:42;;;;;;;1.83;1.55;;;12.40;99.90;;;;;;5051329;28;20071;-36
2023/03/24 03:09:15;;;;;;;1.60;1.23;;;12.40;99.90;;;;;;5053015;28;20025;-38
2023/03/24 03:11:45;;;;;;;1.83;1.48;;;12.40;99.90;;;;;;5053141;28;20028;-38
2023/03/24 03:14:23;;;;;;;1.83;1.50;;;12.40;99.90;;;;;;5052513;28;20025;-35
2023/03/24 03:17:04;;;;;;;2.60;1.55;;;12.40;99.90;;;;;;5052796;28;20068;-38
2023/03/24 03:19:38;;;;;;;1.77;1.33;;;12.40;99.90;;;;;;5053711;28;20096;-36
2023/03/24 03:22:09;;;;;;;2.13;1.48;;;12.40;99.90;;;;;;5052691;28;20139;-37
2023/03/24 03:24:38;;;;;;;3.25;1.50;;;12.40;99.90;;;;;;5052192;28;20394;-36
2023/03/24 03:27:13;;;;;;;2.13;1.45;;;12.40;99.90;;;;;;5051760;28;20108;-39
2023/03/24 03:29:43;;;;;;;1.88;1.27;;;12.40;99.90;;;;;;5052961;28;20508;-38
2023/03/24 03:32:17;;;;;;;1.60;1.23;;;12.40;99.90;;;;;;5052684;28;20036;-38
2023/03/24 03:35:14;;;;;;;1.67;1.33;;;12.40;99.90;;;;;;5052348;28;20029;-38
2023/03/24 03:38:16;;;;;;;1.88;1.30;;;12.40;99.90;;;;;;5051532;28;20032;-36
2023/03/24 03:40:50;;;;;;;1.80;1.20;;;12.40;99.90;;;;;;5052493;28;20028;-38
2023/03/24 03:43:17;;;;;;;2.08;1.40;;;12.40;99.90;;;;;;5051865;28;20078;-36
2023/03/24 03:45:43;;;;;;;1.83;1.23;;;12.40;99.90;;;;;;5052465;28;20403;-36
2023/03/24 03:48:09;;;;;;;1.83;1.40;;;12.40;99.90;;;;;;5052177;28;20029;-36
2023/03/24 03:50:37;;;;;;;1.55;1.27;;;12.40;99.90;;;;;;5052705;28;20040;-37
2023/03/24 03:53:03;;;;;;;1.20;1.02;;;12.40;99.90;;;;;;5052421;28;20033;-36
2023/03/24 03:55:30;;;;;;;2.60;1.50;;;12.50;99.90;;;;;;5051879;28;20063;-40
2023/03/24 03:57:55;;;;;;;1.77;1.27;;;12.40;99.90;;;;;;5051445;28;20016;-38
2023/03/24 04:00:22;;;;;;;1.88;1.40;;;12.40;99.90;;;;;;5051990;28;20066;-40
2023/03/24 04:02:51;;;;;;;1.67;1.40;;;12.40;99.90;;;;;;5051875;28;20029;-38
2023/03/24 04:05:26;;;;;;;2.00;1.50;;;12.40;99.90;;;;;;5051517;28;20052;-40
2023/03/24 04:08:04;;;;;;;2.00;1.33;;;12.40;99.90;;;;;;5051194;28;20556;-37
2023/03/24 04:10:41;;;;;;;2.80;1.40;;;12.30;99.90;;;;;;5051829;28;20036;-42
2023/03/24 04:13:15;;;;;;;2.17;1.45;;;12.40;99.90;;;;;;5051340;28;20021;-40
2023/03/24 04:15:45;;;;;;;2.75;1.33;;;12.40;99.90;;;;;;5051165;28;20537;-39
2023/03/24 04:18:49;;;;;;;3.97;1.48;;;12.40;99.90;;;;;;5051139;28;20108;-39
2023/03/24 04:21:32;;;;;;;2.10;1.45;;;12.40;99.90;;;;;;5051212;28;20031;-40
2023/03/24 04:24:14;;;;;;;2.17;1.40;;;12.40;99.90;;;;;;5052281;28;20100;-40
2023/03/24 04:26:53;;;;;;;1.95;1.27;;;12.40;99.90;;;;;;5050675;28;20056;-40
2023/03/24 04:29:52;;;;;;;1.70;1.42;;;12.40;99.90;;;;;;5051095;28;20498;-40
2023/03/24 04:32:25;;;;;;;3.95;1.40;;;12.40;99.90;;;;;;5047996;28;20040;-40
2023/03/24 04:35:00;;;;;;;1.92;1.48;;;12.40;99.90;;;;;;5050922;28;20025;-41
2023/03/24 04:37:36;;;;;;;2.05;1.55;;;12.40;99.90;;;;;;5050514;28;20040;-39
2023/03/24 04:40:09;;;;;;;1.77;1.30;;;12.40;99.90;;;;;;5050996;28;20550;-40
2023/03/24 04:42:39;;;;;;;2.15;1.30;;;12.40;99.90;;;;;;5051394;28;20021;-39
2023/03/24 04:45:07;;;;;;;1.85;1.38;;;12.40;99.90;;;;;;5051037;28;20025;-38
2023/03/24 04:47:41;;;;;;;3.45;1.50;;;12.40;99.90;;;;;;5050387;28;20040;-39
2023/03/24 04:50:11;;;;;;;2.15;1.52;;;12.40;99.90;;;;;;5050760;28;20387;-38
2023/03/24 04:52:41;;;;;;;2.58;1.40;;;12.30;99.90;;;;;;5050958;28;20032;-40
2023/03/24 04:55:43;;;;;;;2.40;1.40;;;12.40;99.90;;;;;;5050811;28;20449;-40
2023/03/24 04:58:09;;;;;;;2.00;1.50;;;12.30;99.90;;;;;;5050582;28;20562;-39
2023/03/24 05:00:36;;;;;;;1.92;1.40;;;12.40;99.90;;;;;;5050619;28;20115;-39
2023/03/24 05:03:03;;;;;;;2.20;1.52;;;12.40;99.90;;;;;;5051084;28;20025;-38
2023/03/24 05:05:28;;;;;;;1.75;1.30;;;12.40;99.90;;;;;;5050721;28;20054;-39
2023/03/24 05:07:55;;;;;;;2.35;1.50;;;12.40;99.90;;;;;;5051740;28;20082;-37
2023/03/24 05:10:22;;;;;;;1.55;1.42;;;12.40;99.90;;;;;;5051130;28;20025;-42
2023/03/24 05:12:48;;;;;;;1.67;1.25;;;12.30;99.90;;;;;;5050628;28;20039;-40
2023/03/24 05:15:13;;;;;;;2.33;1.50;;;12.40;99.90;;;;;;5050710;28;20036;-40
2023/03/24 05:17:40;;;;;;;1.50;1.20;;;12.30;99.90;;;;;;5050195;28;20021;-40
2023/03/24 05:20:09;;;;;;;2.10;1.40;;;12.40;99.90;;;;;;5050692;28;20025;-40
2023/03/24 05:22:36;;;;;;;1.60;1.27;;;12.30;99.90;;;;;;5050553;28;20364;-39
2023/03/24 05:25:02;;;;;;;2.13;1.40;;;12.40;99.90;;;;;;5050476;28;20151;-40
2023/03/24 05:27:27;;;;;;;1.48;1.10;;;12.40;99.90;;;;;;5050020;28;20037;-39
2023/03/24 05:29:53;;;;;;;2.10;1.42;;;12.40;99.90;;;;;;5050321;28;20057;-39
2023/03/24 05:32:19;;;;;;;2.65;1.30;;;12.30;99.90;;;;;;5050720;28;20033;-39
2023/03/24 05:34:44;;;;;;;2.78;1.70;;;12.30;99.90;;;;;;5050533;28;20025;-40
2023/03/24 05:37:12;;;;;;;1.48;1.02;;;12.30;99.90;;;;;;5049879;28;20108;-39
2023/03/24 05:39:38;;;;;;;2.78;1.30;;;12.30;99.90;;;;;;5050487;28;20136;-39
2023/03/24 05:42:03;;;;;;;2.05;1.50;;;12.30;99.90;;;;;;5050349;28;20554;-39
2023/03/24 05:44:29;;;;;;;1.80;1.23;;;12.30;99.90;;;;;;5050133;28;20029;-40
2023/03/24 05:46:55;;;;;;;4.50;1.60;;;12.30;99.90;;;;;;5049873;28;20076;-40
2023/03/24 05:49:21;;;;;;;2.03;1.50;;;12.40;99.90;;;;;;5051127;28;20041;-39
2023/03/24 05:51:46;;;;;;;2.83;1.60;;;12.30;99.90;;;;;;5053955;28;20364;-40
2023/03/24 05:54:12;;;;;;;2.22;1.40;;;12.30;99.90;;;;;;5053853;28;20025;-39
2023/03/24 05:56:37;;;;;;;2.28;1.33;;;12.30;99.90;;;;;;5053339;28;20069;-39
2023/03/24 05:59:03;;;;;;;1.80;1.27;;;12.30;99.90;;;;;;5053749;28;20024;-42
2023/03/24 06:01:29;;;;;;;2.00;1.33;;;12.30;99.90;;;;;;5053741;28;20099;-39
2023/03/24 06:03:55;;;;;;;1.38;1.20;;;12.30;99.90;;;;;;5053671;28;20021;-41
2023/03/24 06:06:21;;;;;;;2.63;1.58;;;12.30;99.90;;;;;;5053950;28;20021;-40
2023/03/24 06:08:48;;;;;;;1.50;1.40;;;12.30;99.90;;;;;;5054471;28;20122;-35
2023/03/24 06:11:15;;;;;;;2.58;1.50;;;12.30;99.90;;;;;;5053910;28;20471;-36
2023/03/24 06:13:41;;;;;;;2.42;1.35;;;12.30;99.90;;;;;;5054402;28;20031;-40
2023/03/24 06:16:08;;;;;;;1.17;1.02;;;12.30;99.90;;;;;;5054290;28;20411;-41
2023/03/24 06:18:34;;;;;;;2.15;1.42;;;12.30;99.90;;;;;;5053956;28;20024;-39
2023/03/24 06:20:59;;;;;;;1.65;1.30;;;12.30;99.90;;;;;;5053810;28;20037;-39
2023/03/24 06:23:27;;;;;;;1.42;1.23;;;12.30;99.90;;;;;;5053902;28;20104;-36
2023/03/24 06:25:57;;;;;;;1.95;1.48;;;12.30;99.90;;;;;;5053531;28;20060;-39
2023/03/24 06:28:24;;;;;;;2.35;1.40;;;12.30;99.90;;;;;;5054561;28;20075;-36
2023/03/24 06:30:50;;;;;;;2.78;1.27;;;12.30;99.90;;;;;;5053900;28;20032;-36
2023/03/24 06:33:16;;;;;;;1.73;1.27;;;12.30;99.90;;;;;;5053249;28;20371;-40
2023/03/24 06:35:42;;;;;;;2.13;1.40;;;12.30;99.90;;;;;;5052773;28;20025;-38
2023/03/24 06:38:08;;;;;;;1.80;1.38;;;12.30;99.90;;;;;;5053470;28;20104;-38
2023/03/24 06:40:34;;;;;;;2.75;1.42;;;12.30;99.90;;;;;;5053000;28;20029;-35
2023/03/24 06:43:00;;;;;;;1.65;1.30;;;12.30;99.90;;;;;;5053978;28;20039;-37
2023/03/24 06:45:26;;;;;;;1.65;1.05;;;12.30;99.90;;;;;;5054070;28;20039;-37
2023/03/24 06:47:57;;;;;;;1.75;1.50;;;12.30;99.90;;;;;;5053505;28;20495;-40
2023/03/24 06:50:31;;;;;;;2.88;1.30;;;12.30;99.90;;;;;;5053527;28;20029;-36
2023/03/24 06:53:00;;;;;;;1.55;1.23;;;12.30;99.90;;;;;;5053034;28;20025;-38
2023/03/24 06:55:26;;;;;;;1.38;1.20;;;12.30;99.90;;;;;;5053688;28;20058;-40
2023/03/24 06:57:52;;;;;;;3.17;1.45;;;12.20;99.90;;;;;;5053685;28;20025;-38
2023/03/24 07:00:18;;;;;;;1.40;1.25;;;12.30;99.90;;;;;;5053665;28;20028;-35
2023/03/24 07:02:44;;;;;;;1.30;1.13;;;12.30;99.90;;;;;;5052166;28;20099;-36
2023/03/24 07:05:11;;;;;;;2.15;1.30;;;12.20;99.90;;;;;;5052962;28;20126;-39
2023/03/24 07:07:37;;;;;;;1.67;1.13;;;12.20;99.90;;;;;;5052882;28;20048;-37
2023/03/24 07:10:04;;;;;;;1.85;1.20;;;12.30;99.90;;;;;;5053017;28;20491;-38
2023/03/24 07:12:30;;;;;;;1.60;1.20;;;12.20;99.90;;;;;;5052872;28;20071;-37
2023/03/24 07:14:56;;;;;;;2.55;1.30;;;12.20;99.90;;;;;;5053307;28;20025;-36
2023/03/24 07:17:22;;;;;;;1.90;1.40;;;12.20;99.90;;;;;;5051794;28;20016;-36
2023/03/24 07:19:48;;;;;;;3.10;1.73;;;12.20;99.90;;;;;;5053095;28;20460;-35
2023/03/24 07:22:13;;;;;;;1.90;1.40;;;12.20;99.90;;;;;;5053298;28;20110;-39
2023/03/24 07:24:39;;;;;;;2.25;1.30;;;12.20;99.90;;;;;;5052644;28;20096;-40
2023/03/24 07:27:05;;;;;;;3.88;1.40;;;12.20;99.90;;;;;;5052244;28;20033;-35
2023/03/24 07:29:31;;;;;;;2.13;1.60;;;12.20;99.90;;;;;;5052777;28;20565;-35
2023/03/24 07:31:59;;;;;;;1.63;1.27;;;12.20;99.90;;;;;;5052916;28;20116;-39
2023/03/24 07:34:26;;;;;;;2.97;1.25;;;12.20;99.90;;;;;;5052590;28;20025;-36
2023/03/24 07:36:52;;;;;;;1.85;1.52;;;12.20;99.90;;;;;;5051577;28;20032;-39
2023/03/24 07:39:17;;;;;;;2.08;1.25;;;12.20;99.90;;;;;;5052105;28;20017;-39
2023/03/24 07:41:43;;;;;;;1.90;1.30;;;12.20;99.90;;;;;;5052632;28;20025;-39
2023/03/24 07:44:09;;;;;;;3.20;1.23;;;12.20;99.90;;;;;;5052208;28;20074;-39
2023/03/24 07:46:35;;;;;;;2.38;1.10;;;12.20;99.90;;;;;;5051926;28;20029;-36
2023/03/24 07:49:01;;;;;;;1.50;1.20;;;12.20;99.90;;;;;;5053264;28;20510;-36
2023/03/24 07:51:28;;;;;;;2.03;1.30;;;12.20;99.90;;;;;;5052475;28;20051;-36
2023/03/24 07:53:53;;;;;;;1.48;1.38;;;12.20;99.90;;;;;;5052285;28;20033;-36
2023/03/24 07:56:19;;;;;;;1.50;1.20;;;12.20;99.90;;;;;;5051606;28;20036;-38
2023/03/24 07:58:46;;;;;;;2.30;1.40;;;12.20;99.90;;;;;;5052061;28;20021;-38
2023/03/24 08:01:12;;;;;;;1.88;1.60;;;12.20;99.90;;;;;;5052394;28;20601;-36
2023/03/24 08:03:39;;;;;;;1.63;1.30;;;12.20;99.90;;;;;;5051917;28;20081;-40
2023/03/24 08:06:06;;;;;;;1.70;1.40;;;12.20;99.90;;;;;;5050878;28;20510;-38
2023/03/24 08:08:33;;;;;;;1.80;1.17;;;12.20;99.90;;;;;;5051862;28;20029;-36
2023/03/24 08:10:59;;;;;;;1.90;1.45;;;12.20;99.90;;;;;;5051699;28;20021;-36
2023/03/24 08:13:25;;;;;;;2.58;1.55;;;12.20;99.90;;;;;;5051736;28;20160;-35
2023/03/24 08:15:52;;;;;;;2.03;1.38;;;12.20;99.90;;;;;;5051515;28;20028;-35
2023/03/24 08:18:21;;;;;;;1.45;1.13;;;12.20;99.90;;;;;;5051138;28;20020;-39
2023/03/24 08:20:48;;;;;;;1.98;1.30;;;12.20;99.90;;;;;;5051247;28;20376;-35
2023/03/24 08:23:15;;;;;;;1.73;1.20;;;12.20;99.90;;;;;;5050957;28;20048;-35
2023/03/24 08:25:40;;;;;;;2.08;1.38;;;12.20;99.90;;;;;;5051237;28;20107;-36
2023/03/24 08:28:06;;;;;;;1.90;1.10;;;12.20;99.90;;;;;;5050761;28;20104;-36
2023/03/24 08:30:32;;;;;;;2.10;1.60;;;12.20;99.90;;;;;;5051010;28;20021;-37
2023/03/24 08:33:00;;;;;;;1.67;1.30;;;12.20;99.90;;;;;;5050972;28;20021;-35
2023/03/24 08:35:30;;;;;;;2.33;1.63;;;12.20;99.90;;;;;;5050825;28;20471;-36
2023/03/24 08:37:58;;;;;;;1.83;1.35;;;12.20;99.90;;;;;;5049714;28;20355;-36
2023/03/24 08:40:24;;;;;;;1.73;1.20;;;12.20;99.90;;;;;;5051179;28;20025;-36
2023/03/24 08:42:55;;;;;;;6.07;1.50;;;12.30;99.90;;;;;;5050875;28;20652;-36
2023/03/24 08:45:22;;;;;;;1.83;1.10;;;12.30;99.90;;;;;;5051443;28;20025;-36
2023/03/24 08:47:50;;;;;;;3.05;1.33;;;12.30;99.90;;;;;;5050444;28;20025;-37
2023/03/24 08:50:18;;;;;;;4.85;1.30;;;12.30;99.90;;;;;;5050671;28;20025;-36
2023/03/24 08:52:46;;;;;;;2.55;1.50;;;12.30;99.90;;;;;;5050787;28;20040;-36
2023/03/24 08:55:14;;;;;;;2.38;1.42;;;12.40;99.90;;;;;;5050822;28;20021;-36
2023/03/24 08:57:40;;;;;;;1.50;1.20;;;12.40;99.90;;;;;;5050362;28;20470;-36
2023/03/24 09:00:13;;;;;;;1.90;1.30;;;12.40;99.90;;;;;;5050533;28;20036;-36
2023/03/24 09:02:39;;;;;;;3.78;1.52;;;12.40;99.90;;;;;;5050638;28;20028;-36
2023/03/24 09:05:05;;;;;;;1.65;1.20;;;12.40;99.90;;;;;;5050031;28;20517;-38
2023/03/24 09:07:30;;;;;;;2.58;1.20;;;12.40;99.90;;;;;;5050504;28;20024;-35
2023/03/24 09:09:56;;;;;;;3.28;1.40;;;12.40;99.90;;;;;;5051192;28;20386;-38
2023/03/24 09:12:22;;;;;;;2.67;1.50;;;12.40;99.90;;;;;;5050928;28;20017;-38
2023/03/24 09:14:49;;;;;;;2.22;1.40;;;12.40;99.90;;;;;;5050470;28;20048;-38
2023/03/24 09:17:15;;;;;;;2.33;1.20;;;12.40;99.90;;;;;;5050904;28;20531;-39
2023/03/24 09:19:41;;;;;;;1.83;1.17;;;12.40;99.90;;;;;;5051823;28;20103;-36
2023/03/24 09:22:07;;;;;;;2.33;1.45;;;12.40;99.90;;;;;;5051809;28;20083;-40
2023/03/24 09:24:32;;;;;;;1.70;1.30;;;12.40;99.90;;;;;;5052829;28;20017;-35
2023/03/24 09:26:58;;;;;;;2.25;1.60;;;12.40;99.90;;;;;;5055031;28;20082;-38
2023/03/24 09:29:24;;;;;;;2.15;1.50;;;12.40;99.90;;;;;;5054706;28;20107;-36
2023/03/24 09:31:52;;;;;;;4.15;1.50;;;12.40;99.90;;;;;;5054767;28;20025;-37
2023/03/24 09:34:20;;;;;;;3.05;1.33;;;12.40;99.90;;;;;;5054756;28;20017;-36
2023/03/24 09:36:46;;;;;;;2.10;1.30;;;12.40;99.90;;;;;;5054502;28;20087;-40
2023/03/24 09:39:11;;;;;;;1.35;1.20;;;12.50;99.90;;;;;;5054753;28;20024;-37
2023/03/24 09:41:37;;;;;;;1.45;1.17;;;12.50;99.90;;;;;;5054939;28;20028;-38
2023/03/24 09:44:13;;;;;;;4.25;1.50;;;12.50;99.90;;;;;;5054428;28;20391;-38
2023/03/24 09:46:47;;;;;;;2.72;1.30;;;12.50;99.90;;;;;;5053911;28;20028;-40
2023/03/24 09:49:27;;;;;;;2.13;1.53;;;12.50;99.90;;;;;;5054500;28;20057;-39
2023/03/24 09:52:01;;;;;;;1.83;1.30;;;12.50;99.90;;;;;;5054489;28;20029;-37
2023/03/24 09:54:52;;;;;;;2.33;1.00;;;12.50;99.90;;;;;;5053980;28;20086;-40
2023/03/24 09:57:22;;;;;;;1.90;1.58;;;12.50;99.90;;;;;;5053567;28;20112;-40
2023/03/24 09:59:48;;;;;;;2.38;1.35;;;12.50;99.90;;;;;;5054267;28;20048;-40
2023/03/24 10:02:19;;;;;;;1.42;1.17;;;12.60;99.90;;;;;;5053856;28;20061;-40
2023/03/24 10:04:45;;;;;;;2.28;1.30;;;12.60;99.90;;;;;;5052989;28;20085;-36
2023/03/24 10:07:45;;;;;;;3.55;1.55;;;12.60;99.90;;;;;;5054006;28;20025;-39
2023/03/24 10:10:38;;;;;;;2.20;1.38;;;12.60;99.90;;;;;;5053727;28;20564;-35
2023/03/24 10:13:31;;;;;;;2.42;1.58;;;12.60;99.90;;;;;;5053657;28;20017;-36
2023/03/24 10:16:20;;;;;;;2.38;1.40;;;12.70;99.90;;;;;;5053126;28;20028;-36
2023/03/24 10:19:03;;;;;;;8.80;1.90;;;12.60;99.90;;;;;;5053487;28;20036;-36
2023/03/24 10:21:34;;;;;;;3.60;1.48;;;12.70;99.90;;;;;;5053450;28;20036;-36
2023/03/24 10:24:17;;;;;;;2.60;1.33;;;12.70;99.90;;;;;;5053363;28;20017;-39
2023/03/24 10:27:02;;;;;;;4.20;1.20;;;12.70;99.90;;;;;;5053014;28;20029;-36
2023/03/24 10:29:35;;;;;;;2.15;1.02;;;12.70;99.90;;;;;;5053266;28;20025;-36
2023/03/24 10:32:20;;;;;;;3.83;1.45;;;12.70;99.90;;;;;;5053304;28;20103;-40
2023/03/24 10:34:51;;;;;;;4.28;1.23;;;12.70;99.90;;;;;;5053624;28;20025;-36
2023/03/24 10:37:16;;;;;;;4.07;1.42;;;12.80;99.90;;;;;;5052567;28;20028;-38
2023/03/24 10:39:42;;;;;;;1.92;1.10;;;12.70;99.90;;;;;;5053028;28;20033;-40
2023/03/24 10:42:13;;;;;;;1.60;1.27;;;12.70;99.90;;;;;;5052990;28;20025;-40
2023/03/24 10:44:39;;;;;;;2.28;1.38;;;12.80;99.90;;;;;;5052992;28;20067;-38
2023/03/24 10:47:07;;;;;;;1.85;1.10;;;12.80;99.90;;;;;;5052407;28;20029;-37
2023/03/24 10:49:33;;;;;;;1.75;1.13;;;12.80;99.90;;;;;;5052887;28;20033;-36
2023/03/24 10:52:08;;;;;;;2.17;1.40;;;12.80;99.90;;;;;;5052871;28;20066;-36
2023/03/24 10:54:33;;;;;;;2.50;1.33;;;12.80;99.90;;;;;;5052621;28;20029;-40
2023/03/24 10:56:59;;;;;;;4.63;1.02;;;12.80;99.90;;;;;;5052146;28;20036;-40
2023/03/24 10:59:43;;;;;;;2.85;1.25;;;12.80;99.90;;;;;;5052751;28;20033;-41
2023/03/24 11:02:09;;;;;;;3.97;1.10;;;12.80;99.90;;;;;;5052858;28;20210;-38
2023/03/24 11:04:39;;;;;;;1.50;1.20;;;12.80;99.90;;;;;;5052285;28;20104;-41
2023/03/24 11:07:19;;;;;;;5.93;1.33;;;12.80;99.90;;;;;;5052044;28;20029;-43
2023/03/24 11:10:03;;;;;;;3.97;0.90;;;12.80;99.90;;;;;;5052848;28;20466;-40
2023/03/24 11:12:31;;;;;;;2.22;1.40;;;12.80;99.90;;;;;;5052419;28;20383;-39
2023/03/24 11:15:16;;;;;;;2.55;1.35;;;12.80;99.90;;;;;;5052164;28;20029;-39
2023/03/24 11:17:42;;;;;;;1.80;1.20;;;12.80;99.90;;;;;;5051864;28;20027;-39
2023/03/24 11:20:32;;;;;;;1.83;1.25;;;12.80;99.90;;;;;;5052285;28;20087;-38
2023/03/24 11:23:19;;;;;;;2.95;1.10;;;12.90;99.90;;;;;;5052271;28;20021;-38
2023/03/24 11:26:00;;;;;;;1.27;1.05;;;12.80;99.90;;;;;;5051958;28;20475;-41
2023/03/24 11:28:26;;;;;;;2.03;1.20;;;12.80;99.90;;;;;;5051873;28;20028;-42
2023/03/24 11:30:54;;;;;;;3.10;1.08;;;12.90;99.90;;;;;;5052188;28;20533;-40
2023/03/24 11:33:32;;;;;;;3.10;1.00;;;12.90;99.90;;;;;;5051903;28;20088;-40
2023/03/24 11:35:58;;;;;;;1.77;1.10;;;12.80;99.90;;;;;;5051976;28;20051;-39
2023/03/24 11:38:33;;;;;;;1.98;1.05;;;12.90;99.90;;;;;;5051867;28;20025;-42
2023/03/24 11:41:03;;;;;;;1.48;1.00;;;12.90;99.90;;;;;;5051933;28;20021;-40
2023/03/24 11:43:29;;;;;;;0.80;0.80;;;12.90;99.90;;;;;;5051789;28;20017;-40
2023/03/24 11:46:06;;;;;;;5.22;1.10;;;12.90;99.90;;;;;;5051526;28;20024;-40
2023/03/24 11:48:48;;;;;;;2.78;1.10;;;12.90;99.90;;;;;;5051536;28;20028;-40
2023/03/24 11:51:36;;;;;;;1.50;1.13;;;12.90;99.90;;;;;;5051774;28;20025;-39
2023/03/24 11:54:07;;;;;;;2.30;1.20;;;12.90;99.90;;;;;;5051593;28;20550;-39
2023/03/24 11:56:40;;;;;;;1.10;0.90;;;12.90;99.90;;;;;;5050891;28;20112;-38
2023/03/24 11:59:33;;;;;;;1.50;1.00;;;12.90;99.90;;;;;;5051615;28;20026;-40
2023/03/24 12:02:09;;;;;;;1.77;1.00;;;12.90;99.90;;;;;;5051380;28;20111;-40
2023/03/24 12:04:55;;;;;;;1.65;1.13;;;12.90;99.90;;;;;;5051394;28;20020;-40
2023/03/24 12:07:30;;;;;;;1.42;0.98;;;12.90;99.90;;;;;;5050974;28;20487;-40
2023/03/24 12:10:14;;;;;;;;;;;12.90;99.90;;;;;;5051830;28;20021;-41
2023/03/24 12:13:10;;;;;;;1.10;1.00;;;12.90;99.90;;;;;;5051398;28;19904;-39
2023/03/24 12:16:05;;;;;;;1.67;0.80;;;12.90;99.90;;;;;;5051095;28;20372;-40
2023/03/24 12:18:33;;;;;;;;;;;12.90;99.90;;;;;;5051790;28;20017;-38
2023/03/24 12:21:18;;;;;;;0.77;0.70;;;12.90;99.90;;;;;;5051165;28;20269;-39
2023/03/24 12:23:56;;;;;;;2.05;0.80;;;12.90;99.90;;;;;;5050939;28;20029;-38
2023/03/24 12:26:28;;;;;;;2.38;1.10;;;12.90;99.90;;;;;;5050598;28;20103;-40
2023/03/24 12:29:09;;;;;;;1.42;0.80;;;12.90;99.90;;;;;;5051062;28;20028;-40
2023/03/24 12:31:58;;;;;;;2.00;0.90;;;12.80;99.90;;;;;;5051043;28;20495;-39
2023/03/24 12:34:43;;;;;;;1.90;0.88;;;12.80;99.90;;;;;;5051116;28;20029;-39
2023/03/24 12:37:32;;;;;;;1.40;0.95;;;12.80;99.90;;;;;;5050463;28;20099;-38
2023/03/24 12:40:08;;;;;;;1.15;0.80;;;12.90;99.90;;;;;;5050945;28;20047;-40
2023/03/24 12:42:45;;;;;;;1.05;0.80;;;12.80;99.90;;;;;;5050710;28;20104;-40
2023/03/24 12:45:16;;;;;;;1.60;0.65;;;12.80;99.90;;;;;;5040067;28;20048;-38
2023/03/24 12:48:21;;;;;;;2.95;0.52;;;12.90;99.90;;;;;;5034898;28;20113;-37
2023/03/24 12:51:14;;;;;;;0.93;0.60;;;12.90;99.90;;;;;;5029647;28;20076;-37
2023/03/24 12:53:55;;;;;;;1.55;0.50;;;12.90;99.90;;;;;;5030841;28;20104;-37
2023/03/24 12:56:30;;;;;;;1.10;0.45;;;13.00;99.90;;;;;;5030410;28;20033;-36
2023/03/24 12:59:19;;;;;;;0.80;0.43;;;13.00;99.90;;;;;;5031257;28;20138;-36
2023/03/24 13:01:51;;;;;;;3.13;0.47;;;13.00;99.90;;;;;;5034316;28;20075;-36
2023/03/24 13:04:30;;;;;;;0.85;0.60;;;13.10;99.90;;;;;;5035043;28;20564;-36
2023/03/24 13:07:03;;;;;;;1.35;0.40;;;13.00;99.90;;;;;;5034515;28;20087;-38
2023/03/24 13:09:44;;;;;;;0.40;0.40;;;13.00;99.90;;;;;;5034989;28;20052;-35
2023/03/24 13:12:10;;;;;;;1.60;0.50;;;13.00;99.90;;;;;;5035653;28;20091;-39